Time;durP1;ratioP1;P1;durP2;ratioP2;P2;SDS_P1;SDS_P2;PMS_P1;PMS_P2;Temp;Humidity;BMP_temperature;BMP_pressure;BME280_temperature;BME280_humidity;BME280_pressure;Samples;Min_cycle;Max_cycle;Signal;HPM_P1;HPM_P2
2022/12/06 00:01:16;;;;;;;12.05;3.85;;;6.00;99.90;;;;;;5064996;28;20040;-65
2022/12/06 00:03:43;;;;;;;11.70;5.30;;;6.00;99.90;;;;;;5078758;28;20108;-65
2022/12/06 00:06:12;;;;;;;7.90;3.65;;;5.90;99.90;;;;;;5074926;28;20044;-65
2022/12/06 00:08:38;;;;;;;13.00;4.88;;;5.90;99.90;;;;;;5071064;28;20854;-65
2022/12/06 00:11:19;;;;;;;9.32;3.70;;;5.90;99.90;;;;;;5047160;28;20043;-65
2022/12/06 00:13:47;;;;;;;8.73;4.50;;;5.90;99.90;;;;;;5057339;28;20032;-65
2022/12/06 00:16:14;;;;;;;8.73;4.57;;;5.80;99.90;;;;;;5093902;28;20543;-66
2022/12/06 00:18:42;;;;;;;11.93;3.88;;;6.00;99.90;;;;;;5091966;28;20036;-65
2022/12/06 00:21:13;;;;;;;9.27;3.88;;;5.90;99.90;;;;;;5094777;28;20062;-65
2022/12/06 00:23:41;;;;;;;11.27;5.20;;;6.00;99.90;;;;;;5061515;28;20048;-65
2022/12/06 00:26:08;;;;;;;11.63;4.22;;;5.90;99.90;;;;;;5081223;28;20084;-66
2022/12/06 00:28:35;;;;;;;9.40;4.47;;;5.90;99.90;;;;;;5072879;28;20334;-65
2022/12/06 00:31:03;;;;;;;10.90;4.28;;;5.90;99.90;;;;;;5075195;28;20052;-64
2022/12/06 00:33:30;;;;;;;9.68;5.20;;;5.90;99.90;;;;;;5092437;28;20117;-64
2022/12/06 00:35:56;;;;;;;10.00;4.75;;;5.90;99.90;;;;;;5093891;28;20435;-64
2022/12/06 00:38:23;;;;;;;8.30;4.40;;;5.90;99.90;;;;;;5060392;28;20114;-65
2022/12/06 00:40:49;;;;;;;11.00;4.13;;;5.80;99.90;;;;;;5043117;28;20044;-65
2022/12/06 00:43:15;;;;;;;10.05;4.70;;;5.80;99.90;;;;;;5075925;28;20481;-65
2022/12/06 00:45:43;;;;;;;16.65;5.43;;;5.90;99.90;;;;;;5093051;28;20079;-66
2022/12/06 00:48:08;;;;;;;8.75;4.22;;;5.80;99.90;;;;;;5093572;28;20113;-65
2022/12/06 00:50:35;;;;;;;8.18;4.22;;;5.70;99.90;;;;;;5081756;28;20060;-65
2022/12/06 00:53:01;;;;;;;14.15;4.60;;;5.60;99.90;;;;;;5075585;28;20352;-65
2022/12/06 00:55:27;;;;;;;11.02;4.35;;;5.80;99.90;;;;;;5093454;28;20344;-65
2022/12/06 00:57:53;;;;;;;11.57;4.63;;;5.70;99.90;;;;;;5075336;28;20043;-65
2022/12/06 01:00:20;;;;;;;9.63;4.30;;;5.70;99.90;;;;;;5063048;28;20036;-65
2022/12/06 01:02:45;;;;;;;10.73;4.70;;;5.70;99.90;;;;;;5058839;28;20050;-65
2022/12/06 01:05:11;;;;;;;10.60;4.85;;;5.60;99.90;;;;;;5092423;28;20036;-65
2022/12/06 01:07:37;;;;;;;13.07;5.03;;;5.70;99.90;;;;;;5083506;28;20055;-64
2022/12/06 01:10:03;;;;;;;9.68;4.38;;;5.70;99.90;;;;;;5074015;28;20055;-64
2022/12/06 01:12:29;;;;;;;9.73;4.53;;;5.70;99.90;;;;;;5075255;28;20051;-64
2022/12/06 01:14:55;;;;;;;13.52;4.80;;;5.80;99.90;;;;;;5092207;28;20032;-66
2022/12/06 01:17:22;;;;;;;8.68;4.57;;;5.80;99.90;;;;;;5093092;28;20043;-64
2022/12/06 01:19:48;;;;;;;8.00;4.10;;;5.70;99.90;;;;;;5090008;28;20392;-64
2022/12/06 01:22:15;;;;;;;9.55;4.90;;;5.70;99.90;;;;;;5092632;28;20067;-64
2022/12/06 01:24:41;;;;;;;11.82;5.03;;;5.80;99.90;;;;;;5088448;28;20071;-64
2022/12/06 01:27:06;;;;;;;14.23;5.00;;;5.80;99.90;;;;;;5072673;28;20417;-64
2022/12/06 01:29:32;;;;;;;9.90;4.50;;;5.70;99.90;;;;;;5068159;28;20106;-65
2022/12/06 01:31:59;;;;;;;11.77;5.28;;;5.60;99.90;;;;;;5071300;28;20119;-64
2022/12/06 01:34:26;;;;;;;9.05;4.60;;;5.70;99.90;;;;;;5072600;28;20047;-65
2022/12/06 01:36:51;;;;;;;11.02;5.07;;;5.70;99.90;;;;;;5080692;28;20044;-65
2022/12/06 01:39:19;;;;;;;8.88;4.53;;;5.70;99.90;;;;;;5056099;28;20130;-64
2022/12/06 01:41:45;;;;;;;14.07;5.13;;;5.70;99.90;;;;;;5056649;28;20037;-65
2022/12/06 01:44:49;;;;;;;19.20;4.85;;;5.50;99.90;;;;;;5071614;28;20110;-65
2022/12/06 01:47:29;;;;;;;10.35;5.15;;;5.50;99.90;;;;;;5049795;28;20052;-64
2022/12/06 01:50:02;;;;;;;11.20;4.38;;;5.60;99.90;;;;;;5060664;28;20539;-65
2022/12/06 01:52:38;;;;;;;11.48;4.50;;;5.60;99.90;;;;;;5087900;28;20042;-65
2022/12/06 01:55:06;;;;;;;13.45;5.40;;;5.60;99.90;;;;;;5071904;28;20443;-65
2022/12/06 01:57:32;;;;;;;8.88;4.80;;;5.60;99.90;;;;;;5071898;28;20051;-65
2022/12/06 02:00:00;;;;;;;10.77;5.35;;;5.60;99.90;;;;;;5060391;28;20457;-65
2022/12/06 02:02:27;;;;;;;9.98;4.53;;;5.70;99.90;;;;;;5071947;28;20044;-65
2022/12/06 02:04:53;;;;;;;8.65;4.15;;;5.70;99.90;;;;;;5057076;28;20398;-65
2022/12/06 02:07:20;;;;;;;8.18;3.50;;;5.70;99.90;;;;;;5071946;28;20028;-64
2022/12/06 02:09:50;;;;;;;9.45;4.47;;;5.60;99.90;;;;;;5042494;28;20120;-65
2022/12/06 02:12:16;;;;;;;9.13;3.45;;;5.60;99.90;;;;;;5038953;28;20064;-65
2022/12/06 02:14:47;;;;;;;11.68;5.18;;;5.60;99.90;;;;;;5087786;28;20483;-66
2022/12/06 02:17:19;;;;;;;8.30;3.70;;;5.70;99.90;;;;;;5068300;28;20043;-64
2022/12/06 02:20:10;;;;;;;9.07;4.30;;;5.70;99.90;;;;;;5051720;28;20040;-65
2022/12/06 02:23:17;;;;;;;10.07;4.43;;;5.60;99.90;;;;;;5043913;28;20087;-65
2022/12/06 02:26:11;;;;;;;7.68;3.63;;;5.60;99.90;;;;;;5069379;28;20356;-65
2022/12/06 02:28:49;;;;;;;9.00;3.58;;;5.50;99.90;;;;;;5088466;28;20056;-66
2022/12/06 02:31:27;;;;;;;9.63;4.43;;;5.50;99.90;;;;;;5048580;28;20119;-64
2022/12/06 02:34:00;;;;;;;7.00;3.30;;;5.60;99.90;;;;;;5092034;28;20051;-65
2022/12/06 02:36:42;;;;;;;7.40;3.80;;;5.50;99.90;;;;;;5066214;28;20367;-65
2022/12/06 02:39:23;;;;;;;9.13;4.10;;;5.50;99.90;;;;;;5059515;28;20131;-65
2022/12/06 02:42:12;;;;;;;8.98;4.10;;;5.50;99.90;;;;;;5063874;28;20460;-66
2022/12/06 02:44:44;;;;;;;8.18;3.53;;;5.50;99.90;;;;;;5074059;28;20085;-65
2022/12/06 02:47:12;;;;;;;10.55;3.67;;;5.50;99.90;;;;;;5065635;28;20135;-65
2022/12/06 02:49:43;;;;;;;9.18;3.72;;;5.40;99.90;;;;;;5058305;28;20372;-65
2022/12/06 02:52:12;;;;;;;8.32;3.97;;;5.50;99.90;;;;;;5074125;28;20102;-64
2022/12/06 02:54:38;;;;;;;8.02;3.95;;;5.40;99.90;;;;;;5092051;28;20056;-65
2022/12/06 02:57:04;;;;;;;8.25;4.10;;;5.40;99.90;;;;;;5073472;28;20418;-65
2022/12/06 02:59:31;;;;;;;11.40;4.45;;;5.40;99.90;;;;;;5082234;28;20086;-65
2022/12/06 03:02:01;;;;;;;9.27;4.05;;;5.50;99.90;;;;;;5089183;28;20135;-65
2022/12/06 03:05:04;;;;;;;7.32;3.80;;;5.40;99.90;;;;;;5091635;28;20104;-66
2022/12/06 03:07:43;;;;;;;8.35;3.72;;;5.50;99.90;;;;;;5025188;28;20143;-65
2022/12/06 03:10:18;;;;;;;5.57;3.30;;;5.40;99.90;;;;;;5057083;28;20048;-65
2022/12/06 03:13:07;;;;;;;5.95;2.95;;;5.40;99.90;;;;;;5084228;28;20044;-65
2022/12/06 03:15:50;;;;;;;8.48;3.58;;;5.50;99.90;;;;;;5076825;28;20062;-65
2022/12/06 03:18:32;;;;;;;7.03;3.50;;;5.50;99.90;;;;;;5093692;28;20472;-65
2022/12/06 03:21:13;;;;;;;5.57;3.03;;;5.50;99.90;;;;;;5081673;28;20040;-64
2022/12/06 03:23:43;;;;;;;8.20;3.70;;;5.40;99.90;;;;;;5079003;28;20440;-64
2022/12/06 03:26:12;;;;;;;7.15;3.53;;;5.40;99.90;;;;;;5094893;28;20070;-64
2022/12/06 03:28:38;;;;;;;7.80;3.58;;;5.50;99.90;;;;;;5074982;28;20344;-65
2022/12/06 03:31:10;;;;;;;7.10;2.97;;;5.50;99.90;;;;;;5076530;28;20036;-65
2022/12/06 03:33:47;;;;;;;6.13;3.45;;;5.50;99.90;;;;;;5076775;28;20115;-65
2022/12/06 03:36:15;;;;;;;6.18;3.25;;;5.50;99.90;;;;;;5058323;28;20048;-65
2022/12/06 03:39:02;;;;;;;6.53;2.97;;;5.40;99.90;;;;;;5062910;28;20032;-64
2022/12/06 03:41:33;;;;;;;8.57;3.35;;;5.40;99.90;;;;;;5070809;28;20110;-66
2022/12/06 03:43:59;;;;;;;6.82;3.63;;;5.40;99.90;;;;;;5066876;28;20060;-65
2022/12/06 03:46:32;;;;;;;6.90;3.03;;;5.40;99.90;;;;;;5062690;28;20059;-65
2022/12/06 03:49:03;;;;;;;5.38;3.25;;;5.40;99.90;;;;;;5090354;28;20079;-65
2022/12/06 03:51:32;;;;;;;7.80;3.67;;;5.40;99.90;;;;;;5088585;28;20465;-64
2022/12/06 03:54:03;;;;;;;6.38;3.20;;;5.30;99.90;;;;;;5064689;28;20468;-65
2022/12/06 03:56:28;;;;;;;6.20;3.15;;;5.30;99.90;;;;;;5094525;28;20418;-65
2022/12/06 03:58:54;;;;;;;7.40;3.22;;;5.30;99.90;;;;;;5069579;28;20110;-65
2022/12/06 04:01:20;;;;;;;6.10;3.28;;;5.20;99.90;;;;;;5069920;28;20090;-65
2022/12/06 04:03:45;;;;;;;7.18;3.40;;;5.20;99.90;;;;;;5093064;28;20446;-65
2022/12/06 04:06:11;;;;;;;7.68;2.78;;;5.20;99.90;;;;;;5094587;28;20433;-65
2022/12/06 04:08:38;;;;;;;7.10;2.83;;;5.30;99.90;;;;;;5092339;28;20478;-65
2022/12/06 04:11:04;;;;;;;6.60;2.75;;;5.30;99.90;;;;;;5071116;28;20056;-65
2022/12/06 04:13:30;;;;;;;7.13;2.95;;;5.20;99.90;;;;;;5093597;28;20044;-65
2022/12/06 04:15:59;;;;;;;5.40;3.38;;;5.20;99.90;;;;;;5094365;28;20039;-65
2022/12/06 04:18:26;;;;;;;5.75;2.80;;;5.20;99.90;;;;;;5093612;28;20074;-64
2022/12/06 04:23:45;;;;;;;7.47;3.35;;;5.20;99.90;;;;;;5094049;28;20113;-65
2022/12/06 04:26:12;;;;;;;7.47;2.88;;;5.10;99.90;;;;;;5034671;28;20041;-64
2022/12/06 04:39:39;;;;;;;7.38;3.58;;;5.00;99.90;;;;;;5033659;28;20461;-65
2022/12/06 04:44:49;;;;;;;6.47;2.75;;;4.90;99.90;;;;;;5052335;28;20049;-65
2022/12/06 04:47:15;;;;;;;5.93;3.42;;;4.90;99.90;;;;;;5052093;28;20041;-65
2022/12/06 04:49:40;;;;;;;6.30;3.30;;;4.90;99.90;;;;;;5043625;28;20041;-65
2022/12/06 04:52:07;;;;;;;8.70;3.42;;;4.80;99.90;;;;;;5040405;28;20037;-64
2022/12/06 04:54:33;;;;;;;5.32;2.55;;;4.80;99.90;;;;;;5052150;28;20062;-66
2022/12/06 04:56:59;;;;;;;5.97;2.97;;;4.80;99.90;;;;;;5047045;28;20116;-65
2022/12/06 04:59:27;;;;;;;6.20;2.90;;;4.70;99.90;;;;;;5031786;28;20127;-65
2022/12/06 05:01:55;;;;;;;4.07;2.25;;;4.70;99.90;;;;;;5048965;28;20033;-66
2022/12/06 05:04:21;;;;;;;9.13;3.70;;;4.70;99.90;;;;;;5053384;28;20049;-66
2022/12/06 05:06:47;;;;;;;5.55;3.05;;;4.60;99.90;;;;;;5051803;28;20041;-65
2022/12/06 05:09:14;;;;;;;7.68;2.95;;;4.60;99.90;;;;;;5047152;28;20033;-65
2022/12/06 05:11:40;;;;;;;8.25;3.75;;;4.50;99.90;;;;;;5031762;28;20490;-65
2022/12/06 05:14:07;;;;;;;6.65;3.70;;;4.60;99.90;;;;;;5052664;28;20127;-64
2022/12/06 05:16:33;;;;;;;7.90;3.08;;;4.60;99.90;;;;;;5051672;28;20041;-67
2022/12/06 05:18:59;;;;;;;9.02;3.60;;;4.50;99.90;;;;;;5047505;28;20034;-65
2022/12/06 05:21:25;;;;;;;6.00;2.90;;;4.50;99.90;;;;;;5043419;28;20095;-65
2022/12/06 05:23:56;;;;;;;9.70;3.58;;;4.50;99.90;;;;;;5034863;28;20400;-65
2022/12/06 05:26:24;;;;;;;7.18;3.08;;;4.50;99.90;;;;;;5051448;28;20041;-65
2022/12/06 05:28:50;;;;;;;7.10;3.13;;;4.40;99.90;;;;;;5049048;28;20081;-65
2022/12/06 05:31:17;;;;;;;7.50;3.05;;;4.40;99.90;;;;;;5039225;28;20083;-65
2022/12/06 05:33:47;;;;;;;7.03;4.00;;;4.50;99.90;;;;;;5034635;28;20060;-66
2022/12/06 05:36:17;;;;;;;9.40;3.83;;;4.50;99.90;;;;;;5045749;28;20041;-66
2022/12/06 05:38:44;;;;;;;6.68;3.28;;;4.40;99.90;;;;;;5038335;28;20103;-65
2022/12/06 05:41:11;;;;;;;7.65;3.35;;;4.50;99.90;;;;;;5046655;28;20095;-65
2022/12/06 05:43:37;;;;;;;8.90;3.33;;;4.50;99.90;;;;;;5021806;28;20051;-65
2022/12/06 05:46:03;;;;;;;7.20;4.07;;;4.50;99.90;;;;;;5045365;28;20049;-67
2022/12/06 05:48:29;;;;;;;7.82;4.03;;;4.50;99.90;;;;;;5043877;28;20045;-65
2022/12/06 05:50:54;;;;;;;9.50;3.17;;;4.50;99.90;;;;;;5041345;28;20044;-65
2022/12/06 05:53:22;;;;;;;9.75;4.40;;;4.60;99.90;;;;;;5029250;28;20365;-65
2022/12/06 05:55:48;;;;;;;7.32;3.00;;;4.60;99.90;;;;;;5060200;28;20041;-65
2022/12/06 05:58:14;;;;;;;6.82;3.33;;;4.60;99.90;;;;;;5048588;28;20512;-66
2022/12/06 06:00:39;;;;;;;8.25;4.05;;;4.60;99.90;;;;;;5046187;28;20128;-65
2022/12/06 06:03:05;;;;;;;9.45;4.53;;;4.60;99.90;;;;;;5047573;28;20125;-65
2022/12/06 06:05:31;;;;;;;9.98;4.47;;;4.60;99.90;;;;;;5037439;28;20144;-66
2022/12/06 06:07:56;;;;;;;6.20;3.80;;;4.60;99.90;;;;;;5034279;28;20037;-66
2022/12/06 06:10:23;;;;;;;7.95;3.95;;;4.70;99.90;;;;;;5037618;28;20029;-65
2022/12/06 06:12:49;;;;;;;6.93;3.20;;;4.60;99.90;;;;;;5047221;28;20048;-65
2022/12/06 06:15:16;;;;;;;6.65;3.28;;;4.60;99.90;;;;;;5048584;28;20041;-65
2022/12/06 06:17:42;;;;;;;11.48;4.43;;;4.60;99.90;;;;;;5042607;28;20056;-66
2022/12/06 06:20:09;;;;;;;6.95;3.70;;;4.60;99.90;;;;;;5042900;28;20037;-66
2022/12/06 06:22:38;;;;;;;6.60;3.13;;;4.60;99.90;;;;;;5033686;28;20032;-65
2022/12/06 06:25:05;;;;;;;5.97;3.22;;;4.60;99.90;;;;;;5031263;28;20049;-66
2022/12/06 06:27:35;;;;;;;8.35;4.70;;;4.60;99.90;;;;;;5035652;28;20138;-64
2022/12/06 06:30:03;;;;;;;5.97;3.47;;;4.60;99.90;;;;;;5022264;28;20122;-65
2022/12/06 06:32:30;;;;;;;6.80;3.92;;;4.60;99.90;;;;;;5033519;28;20096;-65
2022/12/06 06:34:56;;;;;;;7.75;3.42;;;4.60;99.90;;;;;;5039484;28;20440;-66
2022/12/06 06:37:21;;;;;;;8.95;3.88;;;4.60;99.90;;;;;;5029759;28;20038;-65
2022/12/06 06:39:47;;;;;;;8.70;4.28;;;4.70;99.90;;;;;;5039774;28;20343;-66
2022/12/06 06:42:13;;;;;;;7.10;3.85;;;4.60;99.90;;;;;;5052459;28;20029;-65
2022/12/06 06:44:39;;;;;;;5.53;2.80;;;4.70;99.90;;;;;;5053886;28;20037;-65
2022/12/06 06:47:05;;;;;;;8.27;3.78;;;4.60;99.90;;;;;;5045523;28;20120;-65
2022/12/06 06:49:32;;;;;;;7.30;3.85;;;4.60;99.90;;;;;;5041319;28;20133;-64
2022/12/06 06:51:58;;;;;;;5.63;3.80;;;4.60;99.90;;;;;;5056003;28;20037;-64
2022/12/06 06:54:26;;;;;;;6.80;2.70;;;4.60;99.90;;;;;;5054925;28;20044;-65
2022/12/06 06:56:55;;;;;;;7.40;3.90;;;4.60;99.90;;;;;;5037975;28;20037;-64
2022/12/06 06:59:22;;;;;;;7.25;3.30;;;4.50;99.90;;;;;;5048917;28;20045;-65
2022/12/06 07:01:50;;;;;;;5.72;2.80;;;4.60;99.90;;;;;;5020391;28;20045;-64
2022/12/06 07:04:17;;;;;;;6.65;3.50;;;4.50;99.90;;;;;;5055756;28;20036;-66
2022/12/06 07:06:44;;;;;;;5.82;2.92;;;4.50;99.90;;;;;;5041232;28;20500;-65
2022/12/06 07:09:10;;;;;;;5.82;3.38;;;4.40;99.90;;;;;;5051653;28;20069;-64
2022/12/06 07:11:37;;;;;;;5.22;2.70;;;4.40;99.90;;;;;;5049034;28;20456;-65
2022/12/06 07:14:03;;;;;;;5.80;3.65;;;4.40;99.90;;;;;;5055805;28;20040;-64
2022/12/06 07:16:29;;;;;;;6.28;2.53;;;4.30;99.90;;;;;;5042872;28;20437;-65
2022/12/06 07:18:55;;;;;;;5.25;2.55;;;4.20;99.90;;;;;;5032160;28;20050;-65
2022/12/06 07:21:23;;;;;;;6.32;3.30;;;4.20;99.90;;;;;;5036155;28;20053;-65
2022/12/06 07:23:50;;;;;;;7.25;3.65;;;4.20;99.90;;;;;;5035230;28;20052;-65
2022/12/06 07:26:19;;;;;;;6.53;3.00;;;4.20;99.90;;;;;;5042258;28;20109;-65
2022/12/06 07:28:47;;;;;;;9.35;3.97;;;4.10;99.90;;;;;;5053071;28;20101;-65
2022/12/06 07:31:18;;;;;;;7.95;3.50;;;4.00;99.90;;;;;;5041832;28;20078;-66
2022/12/06 07:33:46;;;;;;;7.25;3.25;;;4.00;99.90;;;;;;5055016;28;20037;-64
2022/12/06 07:36:14;;;;;;;6.32;2.75;;;3.90;99.90;;;;;;5035575;28;20042;-66
2022/12/06 07:38:41;;;;;;;7.82;3.90;;;4.00;99.90;;;;;;5017478;28;20134;-65
2022/12/06 07:46:43;;;;;;;7.43;3.42;;;4.00;99.90;;;;;;5039472;28;20041;-65
2022/12/06 07:49:10;;;;;;;6.40;3.85;;;3.90;99.90;;;;;;5051209;28;20033;-64
2022/12/06 07:51:36;;;;;;;9.75;4.18;;;3.80;99.90;;;;;;5048027;28;20120;-65
2022/12/06 07:54:03;;;;;;;8.20;4.43;;;3.80;99.90;;;;;;5034484;28;20132;-64
2022/12/06 07:56:30;;;;;;;11.85;3.85;;;3.90;99.90;;;;;;5033762;28;20073;-64
2022/12/06 07:58:55;;;;;;;10.35;4.70;;;3.80;99.90;;;;;;5039606;28;20461;-65
2022/12/06 08:01:22;;;;;;;6.90;3.90;;;3.90;99.90;;;;;;5046663;28;20041;-64
2022/12/06 08:03:48;;;;;;;9.95;3.67;;;3.90;99.90;;;;;;5018012;28;20029;-65
2022/12/06 08:06:13;;;;;;;8.60;3.55;;;3.90;99.90;;;;;;5046035;28;20052;-65
2022/12/06 08:08:39;;;;;;;9.15;3.55;;;3.90;99.90;;;;;;5053114;28;20040;-65
2022/12/06 08:11:07;;;;;;;9.27;3.17;;;3.80;99.90;;;;;;5043067;28;20036;-64
2022/12/06 08:13:35;;;;;;;9.02;3.28;;;3.80;99.90;;;;;;5040614;28;20540;-64
2022/12/06 08:16:11;;;;;;;9.23;3.55;;;3.80;99.90;;;;;;5046294;28;20125;-64
2022/12/06 08:18:38;;;;;;;13.52;5.55;;;3.80;99.90;;;;;;5034019;28;20053;-64
2022/12/06 08:21:05;;;;;;;26.83;9.77;;;3.90;99.90;;;;;;5017882;28;20045;-64
2022/12/06 08:23:30;;;;;;;23.17;7.45;;;3.90;99.90;;;;;;5048482;28;20102;-64
2022/12/06 08:25:58;;;;;;;16.40;7.30;;;3.90;99.90;;;;;;5077434;28;20079;-64
2022/12/06 08:28:24;;;;;;;15.52;5.63;;;3.90;99.90;;;;;;5094246;28;20040;-65
2022/12/06 08:30:50;;;;;;;12.77;5.07;;;3.90;99.90;;;;;;5080684;28;20062;-65
2022/12/06 08:33:16;;;;;;;9.55;4.47;;;3.90;99.90;;;;;;5066696;28;20051;-64
2022/12/06 08:35:42;;;;;;;11.25;3.63;;;4.10;99.90;;;;;;5088896;28;20040;-65
2022/12/06 08:38:07;;;;;;;6.20;3.33;;;4.00;99.90;;;;;;5074188;28;20028;-64
2022/12/06 08:40:34;;;;;;;8.02;2.90;;;4.20;99.90;;;;;;5071569;28;20113;-64
2022/12/06 08:43:01;;;;;;;4.55;2.20;;;4.10;99.90;;;;;;5060176;28;20040;-64
2022/12/06 08:45:28;;;;;;;7.18;2.25;;;4.30;99.90;;;;;;5086101;28;20052;-64
2022/12/06 08:47:55;;;;;;;7.00;3.28;;;4.20;99.90;;;;;;5055754;28;20039;-65
2022/12/06 08:50:20;;;;;;;8.68;3.00;;;4.30;99.90;;;;;;5086131;28;20104;-65
2022/12/06 08:52:47;;;;;;;5.72;2.13;;;4.20;99.90;;;;;;5076373;28;20036;-65
2022/12/06 08:55:13;;;;;;;7.88;2.95;;;4.30;99.90;;;;;;5078783;28;20441;-65
2022/12/06 08:57:38;;;;;;;5.65;3.28;;;4.30;99.90;;;;;;5082776;28;20044;-65
2022/12/06 09:00:06;;;;;;;5.45;2.42;;;4.50;99.90;;;;;;5056123;28;20502;-64
2022/12/06 09:02:33;;;;;;;7.78;2.70;;;4.40;99.90;;;;;;5082467;28;20067;-63
2022/12/06 09:05:00;;;;;;;6.85;3.30;;;4.50;99.90;;;;;;5092313;28;20379;-64
2022/12/06 09:07:27;;;;;;;7.05;3.22;;;4.50;99.90;;;;;;5045907;28;20059;-66
2022/12/06 09:09:54;;;;;;;7.00;2.20;;;4.50;99.90;;;;;;5084418;28;20072;-65
2022/12/06 09:12:20;;;;;;;6.20;3.05;;;4.50;99.90;;;;;;5058508;28;20448;-65
2022/12/06 09:14:47;;;;;;;5.63;2.70;;;4.50;99.90;;;;;;5075856;28;20043;-65
2022/12/06 09:17:13;;;;;;;5.50;2.20;;;4.50;99.90;;;;;;5090018;28;20033;-65
2022/12/06 09:19:38;;;;;;;5.75;2.25;;;4.50;99.90;;;;;;5076741;28;20090;-65
2022/12/06 09:22:04;;;;;;;6.80;2.50;;;4.60;99.90;;;;;;5074915;28;20124;-65
2022/12/06 09:24:29;;;;;;;6.65;2.63;;;4.70;99.90;;;;;;5093627;28;20038;-65
2022/12/06 09:26:55;;;;;;;6.68;2.58;;;4.80;99.90;;;;;;5075066;28;20098;-65
2022/12/06 09:29:21;;;;;;;8.48;3.53;;;4.90;99.90;;;;;;5056738;28;20036;-63
2022/12/06 09:31:48;;;;;;;6.15;4.32;;;5.00;99.90;;;;;;5066972;28;20044;-65
2022/12/06 09:34:14;;;;;;;8.88;3.28;;;5.10;99.90;;;;;;5091758;28;20035;-65
2022/12/06 09:36:45;;;;;;;8.70;3.50;;;5.20;99.90;;;;;;5075380;28;20573;-66
2022/12/06 09:39:39;;;;;;;8.23;4.40;;;5.20;99.90;;;;;;5080807;28;20122;-65
2022/12/06 09:42:18;;;;;;;8.00;4.20;;;5.30;99.90;;;;;;5041115;28;20139;-65
2022/12/06 09:45:17;;;;;;;7.47;3.50;;;5.40;99.90;;;;;;5052739;28;20043;-64
2022/12/06 09:48:01;;;;;;;6.70;2.65;;;5.50;99.90;;;;;;5067655;28;20101;-64
2022/12/06 09:50:39;;;;;;;6.80;3.40;;;5.50;99.90;;;;;;5048559;28;20460;-64
2022/12/06 09:53:45;;;;;;;7.28;2.78;;;5.60;99.90;;;;;;5053480;28;20374;-64
2022/12/06 09:56:31;;;;;;;5.93;2.97;;;5.60;99.90;;;;;;5080792;28;20357;-64
2022/12/06 09:59:16;;;;;;;6.22;3.33;;;5.50;99.90;;;;;;5078878;28;20047;-65
2022/12/06 10:02:08;;;;;;;9.15;4.57;;;5.60;99.90;;;;;;5074276;28;20044;-65
2022/12/06 10:05:15;;;;;;;10.95;4.75;;;5.60;99.90;;;;;;5075530;28;20071;-63
2022/12/06 10:07:59;;;;;;;7.93;4.10;;;5.60;99.90;;;;;;5059293;28;20130;-63
2022/12/06 10:10:32;;;;;;;7.20;3.95;;;5.50;99.90;;;;;;5072644;28;20047;-65
2022/12/06 10:13:16;;;;;;;8.65;3.25;;;5.60;99.90;;;;;;5055094;28;20059;-65
2022/12/06 10:16:06;;;;;;;7.68;3.60;;;5.50;99.90;;;;;;5073595;28;20074;-67
2022/12/06 10:18:47;;;;;;;5.97;2.85;;;5.60;99.90;;;;;;5078188;28;20136;-65
2022/12/06 10:21:52;;;;;;;6.05;2.72;;;5.70;99.90;;;;;;5046656;28;20058;-65
2022/12/06 10:24:35;;;;;;;7.03;3.08;;;5.60;99.90;;;;;;5091643;28;20454;-63
2022/12/06 10:27:20;;;;;;;6.67;3.17;;;5.60;99.90;;;;;;5074093;28;20044;-64
2022/12/06 10:30:09;;;;;;;7.82;2.65;;;5.60;99.90;;;;;;5084960;28;20048;-62
2022/12/06 10:32:51;;;;;;;9.13;3.13;;;5.60;99.90;;;;;;5090650;28;20066;-64
2022/12/06 10:35:27;;;;;;;7.28;2.83;;;5.50;99.90;;;;;;5092602;28;20056;-65
2022/12/06 10:38:05;;;;;;;6.97;2.92;;;5.60;99.90;;;;;;5058194;28;20133;-64
2022/12/06 10:40:46;;;;;;;5.55;2.40;;;5.60;99.90;;;;;;5054663;28;20106;-64
2022/12/06 10:43:51;;;;;;;6.88;2.53;;;5.70;99.90;;;;;;5090380;28;20044;-65
2022/12/06 10:49:52;;;;;;;23.63;4.93;;;5.90;99.90;;;;;;5061210;28;20041;-66
2022/12/06 10:52:37;;;;;;;15.07;3.42;;;6.00;99.90;;;;;;5068699;28;20059;-65
2022/12/06 10:55:15;;;;;;;9.98;3.75;;;6.00;99.90;;;;;;5074987;28;20032;-64
2022/12/06 10:57:50;;;;;;;12.20;3.67;;;6.00;99.90;;;;;;5064782;28;20109;-64
2022/12/06 11:00:18;;;;;;;8.35;4.20;;;6.00;99.90;;;;;;5066828;28;20047;-65
2022/12/06 11:03:08;;;;;;;9.85;3.72;;;6.10;99.90;;;;;;5091864;28;20044;-64
2022/12/06 11:05:47;;;;;;;8.07;2.95;;;6.10;99.90;;;;;;5073918;28;20090;-64
2022/12/06 11:08:22;;;;;;;11.43;3.22;;;6.20;99.90;;;;;;5060298;28;20055;-64
2022/12/06 11:10:50;;;;;;;7.97;2.95;;;6.20;99.90;;;;;;5077527;28;20039;-64
2022/12/06 11:13:38;;;;;;;5.40;2.63;;;6.30;99.90;;;;;;5078900;28;20072;-64
2022/12/06 11:16:31;;;;;;;6.63;2.78;;;6.30;99.90;;;;;;5050128;28;20055;-65
2022/12/06 11:19:14;;;;;;;9.93;2.40;;;6.30;99.90;;;;;;5073390;28;20360;-66
2022/12/06 11:21:57;;;;;;;5.45;2.58;;;6.40;99.90;;;;;;5075039;28;20070;-64
2022/12/06 11:24:31;;;;;;;6.13;3.20;;;6.40;99.90;;;;;;5067533;28;20036;-65
2022/12/06 11:27:14;;;;;;;5.43;2.50;;;6.50;99.90;;;;;;5067005;28;20048;-65
2022/12/06 11:29:46;;;;;;;7.15;2.30;;;6.50;99.90;;;;;;5062964;28;20110;-65
2022/12/06 11:32:15;;;;;;;5.07;2.28;;;6.50;99.90;;;;;;5057894;28;20036;-65
2022/12/06 11:34:42;;;;;;;5.72;2.20;;;6.60;99.90;;;;;;5077945;28;20052;-65
2022/12/06 11:37:16;;;;;;;6.55;2.35;;;6.60;99.90;;;;;;5068455;28;20378;-65
2022/12/06 11:39:42;;;;;;;6.93;2.55;;;6.60;99.90;;;;;;5057884;28;20127;-66
2022/12/06 11:42:12;;;;;;;6.40;2.05;;;6.60;99.90;;;;;;5049563;28;20032;-65
2022/12/06 11:44:39;;;;;;;4.80;2.30;;;6.60;99.90;;;;;;5047087;28;20068;-65
2022/12/06 11:47:06;;;;;;;4.97;2.40;;;6.60;99.90;;;;;;5069717;28;20040;-65
2022/12/06 11:49:37;;;;;;;6.30;2.80;;;6.70;99.90;;;;;;5049377;28;20144;-65
2022/12/06 11:52:07;;;;;;;6.18;2.33;;;6.70;99.90;;;;;;5066142;28;20127;-65
2022/12/06 11:54:40;;;;;;;7.28;2.72;;;6.70;99.90;;;;;;5064733;28;20060;-66
2022/12/06 11:57:20;;;;;;;7.45;2.03;;;6.70;99.90;;;;;;5094086;28;20047;-64
2022/12/06 12:00:07;;;;;;;7.45;2.60;;;6.80;99.90;;;;;;5070807;28;20040;-64
2022/12/06 12:02:33;;;;;;;6.90;2.40;;;6.80;99.90;;;;;;5038310;28;20047;-65
2022/12/06 12:05:24;;;;;;;6.45;2.45;;;6.80;99.90;;;;;;5076267;28;20460;-65
2022/12/06 12:08:04;;;;;;;3.50;1.83;;;6.80;99.90;;;;;;5066792;28;20051;-65
2022/12/06 12:10:42;;;;;;;6.20;2.63;;;6.80;99.90;;;;;;5086286;28;20051;-65
2022/12/06 12:16:30;;;;;;;8.80;2.90;;;6.90;99.90;;;;;;5053848;28;20048;-65
2022/12/06 12:19:02;;;;;;;6.30;2.78;;;6.90;99.90;;;;;;5094701;28;20068;-65
2022/12/06 12:21:36;;;;;;;7.28;2.50;;;7.00;99.90;;;;;;5066724;28;20050;-64
2022/12/06 12:24:03;;;;;;;6.70;2.47;;;7.00;99.90;;;;;;5073188;28;20415;-64
2022/12/06 12:26:36;;;;;;;6.65;2.58;;;7.00;99.90;;;;;;5046775;28;20114;-65
2022/12/06 12:29:17;;;;;;;7.18;2.42;;;7.10;99.90;;;;;;5053110;28;20044;-64
2022/12/06 12:32:09;;;;;;;6.05;2.10;;;7.10;99.90;;;;;;5045199;28;20136;-65
2022/12/06 12:34:35;;;;;;;6.43;2.20;;;7.10;99.90;;;;;;5053533;28;20052;-65
2022/12/06 12:37:03;;;;;;;6.38;2.40;;;7.10;99.90;;;;;;5041498;28;20155;-65
2022/12/06 12:39:52;;;;;;;7.70;2.28;;;7.10;99.90;;;;;;5043990;28;20477;-65
2022/12/06 12:42:44;;;;;;;7.07;2.90;;;7.00;99.90;;;;;;5052848;28;20041;-64
2022/12/06 12:45:18;;;;;;;4.60;2.30;;;7.10;99.90;;;;;;5050205;28;20507;-65
2022/12/06 12:48:20;;;;;;;5.53;2.35;;;7.10;99.90;;;;;;5040711;28;20042;-65
2022/12/06 12:51:00;;;;;;;6.63;2.63;;;7.10;99.90;;;;;;5041971;28;20107;-65
2022/12/06 12:53:40;;;;;;;5.40;2.45;;;7.10;99.90;;;;;;5052392;28;20053;-64
2022/12/06 12:56:16;;;;;;;7.05;3.00;;;7.10;99.90;;;;;;5053526;28;20179;-64
2022/12/06 12:58:43;;;;;;;6.80;2.50;;;7.10;99.90;;;;;;5047137;28;20056;-67
2022/12/06 13:01:36;;;;;;;8.63;2.85;;;7.10;99.90;;;;;;5044460;28;20382;-65
2022/12/06 13:04:30;;;;;;;8.50;2.40;;;7.10;99.90;;;;;;5038045;28;20068;-65
2022/12/06 13:07:22;;;;;;;6.63;2.83;;;7.10;99.90;;;;;;5048436;28;20044;-65
2022/12/06 13:10:02;;;;;;;5.55;3.00;;;7.10;99.90;;;;;;5045904;28;20398;-65
2022/12/06 13:12:42;;;;;;;4.18;2.13;;;7.10;99.90;;;;;;5024836;28;20389;-66
2022/12/06 13:15:19;;;;;;;6.68;2.63;;;7.10;99.90;;;;;;5053547;28;20033;-65
2022/12/06 13:17:58;;;;;;;6.10;2.88;;;7.10;99.90;;;;;;5051462;28;20055;-65
2022/12/06 13:20:27;;;;;;;7.53;3.15;;;7.10;99.90;;;;;;5042467;28;20342;-66
2022/12/06 13:22:57;;;;;;;7.72;3.45;;;7.10;99.90;;;;;;5053174;28;20033;-65
2022/12/06 13:25:23;;;;;;;6.93;3.60;;;7.10;99.90;;;;;;5050834;28;20084;-65
2022/12/06 13:27:53;;;;;;;7.00;3.28;;;7.10;99.90;;;;;;5039863;28;20389;-64
2022/12/06 13:30:25;;;;;;;9.50;3.03;;;7.10;99.90;;;;;;5042841;28;20037;-65
2022/12/06 13:33:06;;;;;;;9.70;3.95;;;7.10;99.90;;;;;;5019554;28;20064;-66
2022/12/06 13:35:47;;;;;;;9.05;4.40;;;7.10;99.90;;;;;;5032497;28;20404;-65
2022/12/06 13:38:16;;;;;;;6.80;3.22;;;7.10;99.90;;;;;;5038832;28;20072;-65
2022/12/06 13:40:56;;;;;;;16.27;4.03;;;7.10;99.90;;;;;;5032651;28;20099;-66
2022/12/06 13:43:25;;;;;;;8.25;2.85;;;7.10;99.90;;;;;;5032942;28;20146;-65
2022/12/06 13:46:20;;;;;;;8.65;3.47;;;7.10;99.90;;;;;;5031845;28;20381;-65
2022/12/06 13:49:01;;;;;;;8.80;3.47;;;7.10;99.90;;;;;;5026464;28;20122;-64